Time;durP1;ratioP1;P1;durP2;ratioP2;P2;SDS_P1;SDS_P2;PMS_P1;PMS_P2;Temp;Humidity;BMP_temperature;BMP_pressure;BME280_temperature;BME280_humidity;BME280_pressure;Samples;Min_cycle;Max_cycle;Signal;HPM_P1;HPM_P2
2022/05/05 00:00:48;;;;;;;9.00;7.97;;;13.10;95.50;;;;;;5011970;28;20841;-68
2022/05/05 00:03:14;;;;;;;13.57;7.03;;;13.10;95.30;;;;;;5013077;28;20269;-68
2022/05/05 00:05:39;;;;;;;12.30;7.70;;;13.20;95.30;;;;;;5011975;28;20180;-68
2022/05/05 00:08:05;;;;;;;8.63;7.00;;;13.20;94.90;;;;;;5012711;28;20413;-68
2022/05/05 00:16:13;;;;;;;7.20;6.60;;;13.20;95.20;;;;;;4989556;28;20428;-68
2022/05/05 00:18:39;;;;;;;7.60;6.90;;;13.20;94.20;;;;;;5011518;28;20434;-68
2022/05/05 00:21:04;;;;;;;7.90;7.10;;;13.20;94.10;;;;;;5011403;28;20310;-67
2022/05/05 00:23:30;;;;;;;7.10;6.50;;;13.20;94.40;;;;;;5011495;28;20211;-68
2022/05/05 00:25:56;;;;;;;10.63;7.67;;;13.30;95.20;;;;;;5012441;28;20183;-67
2022/05/05 00:28:21;;;;;;;7.67;6.87;;;13.30;95.90;;;;;;5011390;28;20228;-68
2022/05/05 00:30:47;;;;;;;8.27;7.00;;;13.30;95.80;;;;;;5012167;28;20193;-68
2022/05/05 00:33:13;;;;;;;7.40;6.57;;;13.30;95.90;;;;;;5011463;28;20580;-67
2022/05/05 00:35:39;;;;;;;6.70;5.70;;;13.30;95.90;;;;;;5011506;28;20775;-68
2022/05/05 00:38:04;;;;;;;9.20;6.23;;;13.30;95.80;;;;;;5012441;28;20265;-67
2022/05/05 00:40:31;;;;;;;6.93;6.27;;;13.30;95.80;;;;;;5009439;28;20533;-68
2022/05/05 00:42:58;;;;;;;6.60;5.90;;;13.30;96.10;;;;;;5012218;28;20545;-68
2022/05/05 00:45:24;;;;;;;7.77;6.20;;;13.30;96.60;;;;;;5011806;28;20424;-68
2022/05/05 00:47:50;;;;;;;7.47;6.70;;;13.40;96.70;;;;;;5010793;28;20487;-68
2022/05/05 00:50:18;;;;;;;9.50;6.67;;;13.30;96.30;;;;;;5011965;28;20235;-68
2022/05/05 00:52:44;;;;;;;8.33;6.10;;;13.30;96.40;;;;;;5011994;28;20177;-68
2022/05/05 00:55:10;;;;;;;7.00;6.30;;;13.30;95.90;;;;;;5012267;28;20822;-67
2022/05/05 00:57:37;;;;;;;8.30;5.90;;;13.40;95.90;;;;;;5011248;28;20192;-70
2022/05/05 01:00:04;;;;;;;6.57;5.93;;;13.30;95.90;;;;;;5010395;28;20206;-67
2022/05/05 01:02:32;;;;;;;6.67;5.93;;;13.30;95.90;;;;;;5013601;28;20413;-68
2022/05/05 01:04:58;;;;;;;6.87;6.27;;;13.30;95.50;;;;;;5015866;28;20419;-68
2022/05/05 01:07:25;;;;;;;7.20;6.50;;;13.30;94.90;;;;;;5014977;28;20422;-68
2022/05/05 01:09:51;;;;;;;8.57;6.20;;;13.10;94.60;;;;;;5016236;28;20538;-68
2022/05/05 01:12:17;;;;;;;7.20;5.97;;;12.90;95.00;;;;;;5015821;28;20419;-68
2022/05/05 01:14:44;;;;;;;7.13;6.43;;;12.70;95.30;;;;;;5014136;28;20525;-68
2022/05/05 01:17:10;;;;;;;7.70;6.10;;;12.60;95.70;;;;;;5013803;28;20957;-68
2022/05/05 01:19:36;;;;;;;10.07;6.27;;;12.70;95.90;;;;;;5014883;28;20508;-68
2022/05/05 01:22:03;;;;;;;6.80;6.10;;;12.70;96.20;;;;;;5014262;28;20527;-67
2022/05/05 01:29:58;;;;;;;6.33;5.77;;;12.90;96.80;;;;;;5015709;28;20414;-67
2022/05/05 01:32:30;;;;;;;6.83;6.13;;;13.00;96.60;;;;;;5014552;28;20774;-75
2022/05/05 01:34:56;;;;;;;6.67;6.07;;;13.00;97.30;;;;;;5014178;28;20398;-68
2022/05/05 01:37:21;;;;;;;6.60;6.00;;;13.00;96.90;;;;;;5015060;28;20917;-78
2022/05/05 01:39:48;;;;;;;7.27;6.67;;;13.10;96.80;;;;;;5014742;28;20215;-68
2022/05/05 01:42:13;;;;;;;5.93;5.40;;;13.10;96.40;;;;;;5014639;28;20190;-68
2022/05/05 01:44:39;;;;;;;9.20;5.37;;;13.10;96.00;;;;;;5014535;28;21214;-68
2022/05/05 01:47:05;;;;;;;7.10;6.50;;;13.10;95.30;;;;;;5014867;28;20177;-68
2022/05/05 01:49:30;;;;;;;8.33;5.90;;;13.10;95.00;;;;;;5014122;28;20228;-68
2022/05/05 01:51:56;;;;;;;7.13;6.50;;;13.20;95.70;;;;;;5013235;28;20767;-68
2022/05/05 01:54:22;;;;;;;7.20;6.50;;;13.20;95.90;;;;;;5014790;28;20173;-78
2022/05/05 01:56:48;;;;;;;8.27;7.40;;;13.20;96.30;;;;;;5014452;28;20222;-68
2022/05/05 01:59:13;;;;;;;7.13;6.27;;;13.20;96.40;;;;;;5014283;28;20681;-68
2022/05/05 02:01:39;;;;;;;7.63;6.30;;;13.20;96.60;;;;;;5013839;28;20259;-68
2022/05/05 02:04:04;;;;;;;7.90;7.13;;;13.30;96.80;;;;;;5013849;28;20195;-68
2022/05/05 02:06:30;;;;;;;7.60;6.33;;;13.30;96.80;;;;;;4995914;28;20602;-68
2022/05/05 02:08:57;;;;;;;7.90;7.10;;;13.40;96.80;;;;;;5014185;28;20606;-68
2022/05/05 02:11:23;;;;;;;7.00;6.20;;;13.30;96.70;;;;;;5014127;28;20539;-79
2022/05/05 02:13:50;;;;;;;9.17;7.40;;;13.30;96.90;;;;;;5012530;28;20449;-68
2022/05/05 02:16:16;;;;;;;7.53;6.73;;;13.30;97.30;;;;;;5013141;28;20448;-68
2022/05/05 02:18:41;;;;;;;11.67;8.20;;;13.30;97.30;;;;;;5013693;28;21227;-68
2022/05/05 02:21:07;;;;;;;8.23;7.37;;;13.30;97.20;;;;;;5014631;28;20679;-68
2022/05/05 02:23:33;;;;;;;8.60;7.30;;;13.30;96.10;;;;;;5011625;28;20187;-68
2022/05/05 02:25:58;;;;;;;9.10;8.00;;;13.30;95.60;;;;;;5014032;28;20188;-68
2022/05/05 02:28:24;;;;;;;9.00;6.77;;;13.30;95.40;;;;;;5013704;28;20204;-79
2022/05/05 02:30:50;;;;;;;10.20;7.37;;;13.20;95.50;;;;;;5013816;28;20633;-68
2022/05/05 02:33:15;;;;;;;8.10;7.30;;;13.20;95.90;;;;;;5012876;28;20628;-68
2022/05/05 02:35:41;;;;;;;9.70;8.67;;;13.20;96.40;;;;;;5013407;28;20668;-68
2022/05/05 02:40:51;;;;;;;8.93;7.40;;;13.30;96.40;;;;;;5013934;28;20210;-68
2022/05/05 02:43:17;;;;;;;7.80;7.00;;;13.20;95.90;;;;;;5013025;28;20431;-68
2022/05/05 02:45:42;;;;;;;8.10;6.87;;;13.20;96.30;;;;;;5013130;28;20215;-67
2022/05/05 02:48:08;;;;;;;8.90;6.53;;;13.00;96.00;;;;;;5013996;28;20617;-68
2022/05/05 02:50:34;;;;;;;9.00;6.40;;;13.00;96.30;;;;;;5013153;28;20269;-67
2022/05/05 02:53:00;;;;;;;8.70;6.00;;;13.00;96.10;;;;;;5013912;28;20443;-67
2022/05/05 02:55:27;;;;;;;8.63;6.40;;;13.00;96.70;;;;;;5012283;28;20645;-79
2022/05/05 02:57:52;;;;;;;12.70;7.17;;;13.00;97.20;;;;;;5013113;28;20178;-68
2022/05/05 03:00:20;;;;;;;9.87;8.10;;;13.00;97.20;;;;;;5013488;28;20479;-69
2022/05/05 03:02:46;;;;;;;6.10;5.50;;;13.10;97.00;;;;;;5012127;28;20745;-68
2022/05/05 03:05:13;;;;;;;6.30;5.80;;;13.00;96.60;;;;;;5013851;28;20503;-68
2022/05/05 03:07:39;;;;;;;10.00;5.97;;;13.00;95.80;;;;;;5012711;28;20542;-68
2022/05/05 03:10:06;;;;;;;7.60;6.90;;;13.00;95.50;;;;;;5012828;28;20430;-68
2022/05/05 03:12:31;;;;;;;6.10;5.50;;;13.00;96.20;;;;;;5012211;28;20429;-68
2022/05/05 03:14:57;;;;;;;6.87;6.10;;;13.00;96.20;;;;;;5012816;28;20775;-67
2022/05/05 03:17:23;;;;;;;9.70;6.53;;;13.00;96.60;;;;;;5013098;28;20186;-68
2022/05/05 03:19:48;;;;;;;6.77;5.97;;;13.00;96.60;;;;;;5012694;28;20179;-67
2022/05/05 03:22:14;;;;;;;6.77;5.77;;;13.00;96.80;;;;;;5012798;28;20206;-68
2022/05/05 03:24:40;;;;;;;6.30;5.80;;;13.00;97.50;;;;;;5011714;28;20213;-68
2022/05/05 03:27:06;;;;;;;6.60;6.00;;;13.00;97.90;;;;;;5012069;28;20218;-67
2022/05/05 03:29:32;;;;;;;6.60;6.00;;;12.90;97.70;;;;;;5011607;28;20190;-68
2022/05/05 03:31:58;;;;;;;7.00;6.37;;;13.00;97.40;;;;;;5013297;28;20408;-68
2022/05/05 03:34:24;;;;;;;8.50;7.70;;;12.90;97.50;;;;;;5010788;28;20441;-67
2022/05/05 03:36:49;;;;;;;9.30;7.43;;;13.00;97.80;;;;;;5012476;28;20169;-68
2022/05/05 03:39:15;;;;;;;7.57;6.87;;;13.00;98.00;;;;;;5013238;28;20176;-68
2022/05/05 03:41:41;;;;;;;10.40;6.73;;;13.00;97.90;;;;;;5012326;28;20676;-67
2022/05/05 03:44:07;;;;;;;9.67;7.50;;;13.00;97.90;;;;;;5012087;28;20195;-67
2022/05/05 03:46:33;;;;;;;7.37;6.53;;;13.00;98.00;;;;;;5010321;28;20211;-69
2022/05/05 03:48:59;;;;;;;8.40;7.00;;;13.00;98.00;;;;;;5013067;28;20482;-69
2022/05/05 03:51:25;;;;;;;7.47;6.83;;;13.00;97.90;;;;;;5012141;28;20428;-69
2022/05/05 03:53:52;;;;;;;10.23;7.13;;;13.00;98.10;;;;;;5012688;28;20459;-69
2022/05/05 03:56:17;;;;;;;7.17;6.57;;;13.10;98.60;;;;;;5013325;28;20189;-69
2022/05/05 03:58:43;;;;;;;7.97;7.13;;;13.10;98.60;;;;;;5012644;28;20887;-69
2022/05/05 04:01:09;;;;;;;6.57;5.97;;;13.10;98.40;;;;;;5013234;28;20220;-69
2022/05/05 04:03:36;;;;;;;7.33;6.63;;;13.10;98.20;;;;;;5011930;28;20181;-68
2022/05/05 04:06:04;;;;;;;7.87;6.40;;;13.10;98.20;;;;;;5012280;28;20185;-67
2022/05/05 04:08:31;;;;;;;9.03;7.40;;;13.10;98.40;;;;;;5010795;28;20526;-70
2022/05/05 04:10:57;;;;;;;7.90;7.20;;;13.10;98.20;;;;;;5008136;28;20447;-68
2022/05/05 04:13:25;;;;;;;8.20;6.90;;;13.10;98.10;;;;;;5010533;28;20433;-67
2022/05/05 04:15:51;;;;;;;7.90;7.10;;;13.20;98.40;;;;;;5010689;28;21173;-68
2022/05/05 04:18:17;;;;;;;7.90;7.10;;;13.10;98.30;;;;;;5011082;28;20463;-68
2022/05/05 04:20:43;;;;;;;8.57;6.50;;;13.10;97.30;;;;;;5010171;28;20552;-69
2022/05/05 04:23:10;;;;;;;7.90;7.10;;;13.20;96.40;;;;;;5026730;28;20190;-68
2022/05/05 04:25:42;;;;;;;11.90;7.90;;;13.10;96.10;;;;;;5010637;28;20436;-69
2022/05/05 04:28:09;;;;;;;8.83;7.47;;;13.00;95.90;;;;;;5012260;28;20418;-68
2022/05/05 04:30:36;;;;;;;7.90;7.20;;;12.90;95.40;;;;;;5011909;28;20406;-68
2022/05/05 04:33:02;;;;;;;9.40;7.53;;;12.80;95.80;;;;;;5012076;28;20414;-68
2022/05/05 04:35:28;;;;;;;8.20;7.40;;;12.80;96.00;;;;;;5011217;28;20426;-68
2022/05/05 04:37:53;;;;;;;8.47;7.10;;;12.80;97.00;;;;;;5014474;28;20484;-68
2022/05/05 04:40:19;;;;;;;6.60;6.00;;;12.90;97.50;;;;;;5016287;28;20207;-68
2022/05/05 04:42:45;;;;;;;7.23;6.63;;;12.90;97.90;;;;;;5015929;28;20200;-68
2022/05/05 04:45:11;;;;;;;8.40;6.50;;;12.90;97.00;;;;;;5016240;28;20530;-68
2022/05/05 04:47:37;;;;;;;9.23;6.83;;;12.90;96.70;;;;;;5015258;28;20557;-68
2022/05/05 04:50:03;;;;;;;10.10;7.50;;;12.90;97.10;;;;;;5015212;28;20494;-68
2022/05/05 04:52:31;;;;;;;13.20;8.47;;;12.90;96.60;;;;;;5015841;28;20492;-68
2022/05/05 04:54:57;;;;;;;9.20;8.17;;;12.90;96.40;;;;;;5015808;28;20411;-68
2022/05/05 04:57:23;;;;;;;8.20;7.47;;;12.90;96.50;;;;;;5016646;28;20424;-68
2022/05/05 04:59:48;;;;;;;9.70;7.67;;;12.90;96.70;;;;;;5015158;28;20423;-69
2022/05/05 05:02:14;;;;;;;9.67;7.70;;;12.80;96.60;;;;;;5015907;28;20179;-69
2022/05/05 05:04:41;;;;;;;10.10;7.57;;;12.80;96.70;;;;;;5015539;28;20187;-69
2022/05/05 05:07:06;;;;;;;6.50;5.90;;;12.80;96.90;;;;;;5016204;28;20172;-69
2022/05/05 05:09:34;;;;;;;7.83;6.97;;;12.80;96.90;;;;;;5015803;28;20910;-75
2022/05/05 05:12:00;;;;;;;8.57;7.63;;;12.90;98.00;;;;;;5015607;28;20923;-69
2022/05/05 05:14:26;;;;;;;8.73;8.03;;;12.90;97.40;;;;;;5005312;28;20775;-68
2022/05/05 05:16:52;;;;;;;8.23;7.40;;;13.00;98.00;;;;;;4995328;28;20436;-69
2022/05/05 05:19:18;;;;;;;10.40;7.20;;;13.00;98.40;;;;;;5005034;28;20440;-69
2022/05/05 05:21:44;;;;;;;9.13;8.33;;;13.00;98.40;;;;;;5012191;28;20505;-69
2022/05/05 05:24:09;;;;;;;9.33;8.30;;;13.00;98.50;;;;;;5014264;28;20458;-72
2022/05/05 05:26:35;;;;;;;10.87;7.13;;;13.10;98.70;;;;;;4995315;28;20205;-75
2022/05/05 05:29:01;;;;;;;8.50;7.07;;;13.10;98.70;;;;;;5010302;28;20185;-70
2022/05/05 05:31:28;;;;;;;9.87;7.20;;;13.30;99.10;;;;;;5013213;28;20244;-73
2022/05/05 05:33:54;;;;;;;8.87;7.20;;;13.20;99.00;;;;;;5013899;28;20187;-73
2022/05/05 05:36:20;;;;;;;9.20;7.60;;;13.20;98.20;;;;;;5013296;28;20435;-75
2022/05/05 05:38:46;;;;;;;10.50;8.10;;;13.30;97.40;;;;;;5013727;28;20181;-74
2022/05/05 05:41:13;;;;;;;10.40;7.70;;;13.30;97.30;;;;;;5014691;28;20481;-75
2022/05/05 05:43:39;;;;;;;10.53;7.50;;;13.30;97.60;;;;;;5013484;28;20236;-73
2022/05/05 05:46:05;;;;;;;10.30;7.47;;;13.40;97.40;;;;;;5014562;28;20438;-74
2022/05/05 05:48:31;;;;;;;8.50;7.30;;;13.50;97.20;;;;;;5013015;28;20471;-74
2022/05/05 05:50:57;;;;;;;9.80;7.53;;;13.50;96.70;;;;;;5013214;28;20481;-71
2022/05/05 05:53:22;;;;;;;9.10;8.20;;;13.70;99.90;;;;;;5012976;28;20455;-71
2022/05/05 05:55:48;;;;;;;8.70;7.83;;;13.90;99.90;;;;;;5014041;28;20190;-71
2022/05/05 05:58:14;;;;;;;9.67;7.23;;;14.20;99.90;;;;;;5013998;28;20629;-71
2022/05/05 06:00:40;;;;;;;8.40;7.60;;;14.40;99.90;;;;;;5012442;28;20202;-74
2022/05/05 06:05:50;;;;;;;8.10;7.30;;;14.90;99.90;;;;;;5013451;28;20438;-71
2022/05/05 06:08:16;;;;;;;10.13;7.20;;;15.20;99.20;;;;;;5012850;28;20460;-71
2022/05/05 06:10:42;;;;;;;11.93;8.60;;;15.40;98.40;;;;;;5012581;28;20190;-71
2022/05/05 06:13:08;;;;;;;11.73;8.03;;;15.60;97.90;;;;;;5013933;28;20458;-69
2022/05/05 06:15:33;;;;;;;8.57;7.77;;;15.80;96.50;;;;;;5014941;28;20197;-69
2022/05/05 06:17:59;;;;;;;12.60;8.00;;;15.90;93.70;;;;;;5010584;28;20445;-69
2022/05/05 06:20:25;;;;;;;9.10;8.30;;;15.90;92.90;;;;;;5013431;28;20634;-69
2022/05/05 06:22:51;;;;;;;9.33;7.40;;;15.80;92.60;;;;;;5012774;28;20656;-69
2022/05/05 06:25:19;;;;;;;9.67;7.77;;;15.70;92.70;;;;;;5014400;28;20662;-69
2022/05/05 06:27:45;;;;;;;9.77;8.03;;;15.60;92.60;;;;;;5014025;28;20424;-69
2022/05/05 06:30:13;;;;;;;9.57;8.50;;;15.50;92.70;;;;;;5014614;28;20433;-69
2022/05/05 06:32:41;;;;;;;10.23;8.50;;;15.40;92.50;;;;;;5012272;28;20634;-76
2022/05/05 06:35:07;;;;;;;10.17;8.40;;;15.40;93.40;;;;;;5012778;28;20972;-69
2022/05/05 06:37:33;;;;;;;9.63;8.73;;;15.30;93.40;;;;;;5014633;28;20753;-68
2022/05/05 06:40:00;;;;;;;10.17;8.70;;;15.20;93.30;;;;;;5011136;28;20565;-69
2022/05/05 06:42:27;;;;;;;9.40;8.40;;;15.20;93.70;;;;;;5013699;28;20269;-69
2022/05/05 06:44:53;;;;;;;17.37;8.83;;;15.10;93.80;;;;;;5014063;28;20417;-69
2022/05/05 06:47:19;;;;;;;8.90;7.83;;;15.10;94.20;;;;;;5014449;28;20415;-69
2022/05/05 06:49:44;;;;;;;12.73;9.23;;;15.10;94.40;;;;;;5013985;28;20229;-69
2022/05/05 06:52:10;;;;;;;9.63;8.40;;;15.00;94.10;;;;;;5014685;28;20189;-69
2022/05/05 06:54:36;;;;;;;14.77;9.17;;;15.10;94.30;;;;;;5014078;28;20637;-69
2022/05/05 06:57:02;;;;;;;15.77;9.00;;;15.10;94.20;;;;;;5013087;28;20652;-69
2022/05/05 06:59:28;;;;;;;8.93;8.00;;;15.10;94.00;;;;;;5013803;28;20185;-69
2022/05/05 07:01:54;;;;;;;9.43;8.57;;;15.10;94.40;;;;;;5013103;28;20557;-68
2022/05/05 07:07:07;;;;;;;9.10;8.20;;;15.20;93.70;;;;;;5014344;28;20892;-69
2022/05/05 07:12:18;;;;;;;9.03;8.13;;;15.20;92.50;;;;;;5014225;28;20404;-68
2022/05/05 07:14:44;;;;;;;14.50;8.80;;;15.10;92.70;;;;;;5013494;28;20418;-69
2022/05/05 07:17:14;;;;;;;12.60;8.23;;;14.90;92.60;;;;;;5013728;28;20171;-69
2022/05/05 07:19:40;;;;;;;11.43;9.23;;;14.90;93.80;;;;;;5013571;28;20489;-78
2022/05/05 07:22:07;;;;;;;11.10;8.93;;;15.00;94.20;;;;;;5013948;28;20406;-69
2022/05/05 07:24:33;;;;;;;11.87;8.60;;;15.10;93.40;;;;;;5013987;28;20743;-69
2022/05/05 07:26:59;;;;;;;14.67;9.87;;;15.20;93.30;;;;;;5013243;28;20425;-69
2022/05/05 07:29:25;;;;;;;11.50;10.43;;;15.20;93.40;;;;;;5013800;28;20531;-69
2022/05/05 07:31:51;;;;;;;12.53;9.67;;;15.30;94.50;;;;;;5012932;28;20419;-69
2022/05/05 07:34:18;;;;;;;11.37;9.10;;;15.40;94.50;;;;;;5013654;28;20187;-69
2022/05/05 07:36:45;;;;;;;9.53;8.63;;;15.40;93.10;;;;;;5013124;28;20413;-69
2022/05/05 07:39:11;;;;;;;13.33;9.47;;;15.60;92.50;;;;;;5013623;28;20459;-69
2022/05/05 07:41:37;;;;;;;9.57;8.60;;;15.60;92.60;;;;;;5013527;28;20914;-69
2022/05/05 07:44:05;;;;;;;10.27;8.23;;;15.70;92.30;;;;;;5012929;28;20429;-69
2022/05/05 07:46:32;;;;;;;9.60;8.27;;;15.80;91.80;;;;;;5013541;28;20420;-69
2022/05/05 07:49:00;;;;;;;10.57;9.00;;;15.90;90.70;;;;;;5012831;28;20496;-69
2022/05/05 07:51:25;;;;;;;10.20;8.30;;;15.90;88.80;;;;;;5013430;28;20456;-70
2022/05/05 07:56:35;;;;;;;9.17;8.27;;;16.00;90.40;;;;;;5013338;28;20188;-69
2022/05/05 07:59:01;;;;;;;12.20;8.70;;;16.00;90.70;;;;;;5012711;28;20500;-69
2022/05/05 08:01:28;;;;;;;9.10;8.20;;;16.10;91.30;;;;;;5013114;28;20256;-69
2022/05/05 08:03:54;;;;;;;11.67;8.57;;;16.20;91.10;;;;;;5012872;28;20182;-69
2022/05/05 08:06:20;;;;;;;11.23;8.80;;;16.30;90.50;;;;;;5013053;28;20421;-69
2022/05/05 08:08:46;;;;;;;13.40;7.60;;;16.40;90.50;;;;;;5012271;28;20417;-76
2022/05/05 08:11:12;;;;;;;8.80;7.33;;;16.50;90.00;;;;;;5010903;28;20878;-69
2022/05/05 08:13:37;;;;;;;12.10;8.73;;;16.60;90.00;;;;;;5012411;28;20210;-70
2022/05/05 08:16:03;;;;;;;13.53;8.53;;;16.70;90.00;;;;;;5012022;28;20245;-69
2022/05/05 08:18:29;;;;;;;10.30;8.30;;;16.80;90.00;;;;;;5013105;28;20179;-69
2022/05/05 08:20:54;;;;;;;9.60;7.87;;;17.00;89.00;;;;;;5011696;28;20245;-69
2022/05/05 08:23:20;;;;;;;10.90;8.27;;;17.10;88.90;;;;;;5011451;28;20179;-69
2022/05/05 08:28:31;;;;;;;13.07;8.90;;;17.40;88.00;;;;;;5012974;28;20209;-69
2022/05/05 08:30:58;;;;;;;12.87;8.87;;;17.50;86.00;;;;;;5012138;28;20499;-68
2022/05/05 08:33:27;;;;;;;11.27;9.90;;;17.60;86.40;;;;;;5012830;28;20418;-69
2022/05/05 08:35:59;;;;;;;12.93;9.07;;;17.70;84.50;;;;;;5012177;28;20472;-69
2022/05/05 08:38:25;;;;;;;11.53;10.03;;;17.80;84.10;;;;;;5012910;28;20420;-69
2022/05/05 08:40:51;;;;;;;12.17;9.00;;;17.90;84.10;;;;;;5012130;28;20470;-69
2022/05/05 08:43:18;;;;;;;10.10;9.10;;;18.00;83.50;;;;;;5012829;28;20406;-69
2022/05/05 08:45:46;;;;;;;11.57;10.10;;;18.20;82.80;;;;;;5012776;28;20461;-69
2022/05/05 08:48:13;;;;;;;15.80;9.93;;;18.30;81.70;;;;;;5011504;28;20513;-69
2022/05/05 08:50:44;;;;;;;13.47;11.30;;;18.40;81.70;;;;;;5012377;28;20449;-69
2022/05/05 08:53:13;;;;;;;11.87;10.13;;;18.50;81.30;;;;;;5011723;28;20437;-71
2022/05/05 08:55:39;;;;;;;13.13;11.33;;;18.60;78.50;;;;;;5013026;28;20406;-69
2022/05/05 08:58:04;;;;;;;10.77;9.67;;;18.80;80.90;;;;;;5012012;28;20472;-69
2022/05/05 09:00:30;;;;;;;13.73;10.77;;;18.90;78.00;;;;;;5012449;28;20206;-70
2022/05/05 09:03:00;;;;;;;14.47;10.40;;;19.00;78.50;;;;;;5011936;28;20535;-69
2022/05/05 09:05:45;;;;;;;12.23;10.30;;;19.10;79.00;;;;;;5012543;28;20768;-69
2022/05/05 09:08:12;;;;;;;13.20;10.73;;;19.30;78.90;;;;;;5012480;28;20472;-69
2022/05/05 09:10:50;;;;;;;12.57;10.40;;;19.50;79.60;;;;;;5012387;28;20410;-69
2022/05/05 09:13:25;;;;;;;14.47;11.67;;;19.60;79.60;;;;;;5012208;28;20947;-69
2022/05/05 09:15:51;;;;;;;13.67;11.87;;;19.80;78.90;;;;;;5010622;28;20410;-69
2022/05/05 09:18:31;;;;;;;13.77;11.80;;;20.00;76.80;;;;;;5012575;28;20417;-69
2022/05/05 09:21:05;;;;;;;14.23;12.67;;;20.00;77.00;;;;;;5011822;28;20458;-69
2022/05/05 09:24:34;;;;;;;13.50;12.10;;;20.00;76.30;;;;;;5013553;28;20441;-69
2022/05/05 09:26:30;;;;;;;15.20;13.17;;;20.00;76.20;;;;;;5016084;28;20480;-69
2022/05/05 09:28:57;;;;;;;19.90;14.40;;;20.00;77.80;;;;;;5015457;28;20414;-69
2022/05/05 09:31:23;;;;;;;19.40;16.90;;;20.10;77.50;;;;;;5016017;28;20409;-69
2022/05/05 09:33:49;;;;;;;23.13;19.60;;;20.10;75.10;;;;;;5015320;28;20410;-71
2022/05/05 09:36:16;;;;;;;21.83;19.47;;;20.20;75.60;;;;;;5016023;28;20418;-69
2022/05/05 09:39:03;;;;;;;25.00;19.00;;;20.20;74.60;;;;;;5015767;28;20500;-69
2022/05/05 09:41:44;;;;;;;19.80;17.47;;;20.20;76.70;;;;;;5015921;28;20453;-69
2022/05/05 09:44:16;;;;;;;24.67;20.83;;;20.30;78.50;;;;;;5015075;28;20430;-69
2022/05/05 09:46:43;;;;;;;20.10;17.00;;;20.50;73.90;;;;;;5015616;28;20426;-69
2022/05/05 09:49:12;;;;;;;21.93;15.80;;;20.60;70.50;;;;;;5014950;28;20461;-69
2022/05/05 09:51:43;;;;;;;20.23;16.43;;;20.70;70.00;;;;;;5015545;28;20436;-69
2022/05/05 09:59:47;;;;;;;17.60;15.03;;;20.90;72.20;;;;;;5015345;28;20766;-70
2022/05/05 10:05:24;;;;;;;18.53;14.20;;;20.70;71.40;;;;;;5015306;28;20417;-69
2022/05/05 10:07:53;;;;;;;17.90;14.77;;;20.70;75.70;;;;;;5014898;28;20418;-75
2022/05/05 10:10:19;;;;;;;17.43;14.80;;;20.80;76.20;;;;;;5015227;28;20449;-69
2022/05/05 10:12:46;;;;;;;16.83;14.77;;;20.90;74.60;;;;;;5015161;28;20440;-69
2022/05/05 10:15:13;;;;;;;18.80;15.20;;;21.00;70.90;;;;;;5014575;28;20766;-69
2022/05/05 10:17:39;;;;;;;17.47;14.93;;;20.90;70.90;;;;;;5015223;28;20517;-69
2022/05/05 10:20:06;;;;;;;18.07;14.90;;;20.90;69.20;;;;;;5014354;28;20953;-69
2022/05/05 10:23:07;;;;;;;19.20;14.80;;;20.80;72.40;;;;;;5014542;28;20426;-69
2022/05/05 10:25:37;;;;;;;16.80;14.07;;;20.80;71.80;;;;;;5015134;28;20414;-69
2022/05/05 10:28:23;;;;;;;16.13;14.43;;;20.90;75.40;;;;;;5014337;28;20904;-69
2022/05/05 10:30:49;;;;;;;18.87;14.80;;;21.00;74.00;;;;;;5014625;28;20913;-69
2022/05/05 10:33:15;;;;;;;18.90;14.07;;;21.10;69.40;;;;;;5014265;28;20420;-69
2022/05/05 10:35:47;;;;;;;20.20;13.70;;;21.20;72.40;;;;;;5013091;28;20436;-69
2022/05/05 10:38:40;;;;;;;21.73;15.47;;;21.30;70.10;;;;;;5014195;28;20181;-69
2022/05/05 10:41:39;;;;;;;19.53;14.07;;;21.50;66.30;;;;;;5013860;28;20886;-69
2022/05/05 10:44:20;;;;;;;17.07;14.77;;;21.70;66.80;;;;;;4991589;28;20906;-69
2022/05/05 10:47:01;;;;;;;16.20;13.57;;;21.90;68.50;;;;;;5014449;28;20433;-69
2022/05/05 10:49:32;;;;;;;15.83;13.10;;;22.00;69.40;;;;;;5013734;28;20472;-69
2022/05/05 10:52:10;;;;;;;16.17;14.40;;;22.20;68.70;;;;;;5013795;28;20434;-69
2022/05/05 10:54:43;;;;;;;14.63;13.10;;;22.30;67.50;;;;;;5014381;28;20425;-69
2022/05/05 10:57:38;;;;;;;15.23;13.50;;;22.30;68.90;;;;;;5013862;28;20456;-69
2022/05/05 11:00:10;;;;;;;15.13;12.23;;;22.40;68.90;;;;;;5012620;28;20430;-69
2022/05/05 11:02:37;;;;;;;15.27;13.60;;;22.50;67.20;;;;;;5014117;28;20418;-69
2022/05/05 11:05:23;;;;;;;13.10;11.23;;;22.60;68.70;;;;;;5013666;28;20421;-69
2022/05/05 11:07:51;;;;;;;15.23;12.70;;;22.60;66.40;;;;;;5014367;28;20437;-68
2022/05/05 11:10:42;;;;;;;15.27;13.03;;;22.50;65.10;;;;;;5013445;28;20426;-69
2022/05/05 11:13:28;;;;;;;14.50;13.10;;;22.50;64.60;;;;;;5012884;28;20406;-69
2022/05/05 11:21:32;;;;;;;15.63;13.93;;;22.60;59.50;;;;;;5013756;28;20500;-69
2022/05/05 11:21:48;;;;;;;16.80;12.30;;;22.10;60.70;;;;;;5013457;28;20460;-69
2022/05/05 11:24:27;;;;;;;14.20;12.70;;;22.00;61.80;;;;;;5012724;28;20418;-69
2022/05/05 11:26:54;;;;;;;16.87;13.03;;;22.00;65.70;;;;;;5013645;28;20163;-68
2022/05/05 11:29:19;;;;;;;16.83;12.53;;;21.80;63.30;;;;;;5013438;28;20940;-69
2022/05/05 11:31:59;;;;;;;16.40;12.77;;;21.70;64.30;;;;;;5013180;28;20504;-69
2022/05/05 11:34:36;;;;;;;12.60;11.30;;;21.60;64.10;;;;;;5013590;28;20604;-69
2022/05/05 11:37:05;;;;;;;10.67;9.60;;;21.60;67.60;;;;;;5013058;28;20406;-69
2022/05/05 11:39:32;;;;;;;11.50;10.30;;;21.70;67.80;;;;;;5013367;28;20416;-69
2022/05/05 11:42:00;;;;;;;12.00;10.03;;;22.00;66.70;;;;;;5012940;28;20450;-69
2022/05/05 11:44:27;;;;;;;12.80;10.00;;;22.10;67.90;;;;;;5013572;28;20426;-69
2022/05/05 11:46:54;;;;;;;11.00;9.90;;;22.30;68.40;;;;;;5012698;28;20426;-69
2022/05/05 11:49:20;;;;;;;10.73;9.63;;;22.50;67.50;;;;;;5012806;28;20465;-69
2022/05/05 11:51:46;;;;;;;10.63;9.50;;;22.50;64.70;;;;;;5013448;28;20426;-69
2022/05/05 11:54:16;;;;;;;12.20;10.37;;;22.60;68.00;;;;;;5012788;28;20421;-69
2022/05/05 11:56:44;;;;;;;11.47;10.27;;;22.70;67.30;;;;;;5011944;28;20623;-69
2022/05/05 12:02:04;;;;;;;10.33;9.43;;;22.90;64.30;;;;;;5012538;28;20460;-70
2022/05/05 12:04:30;;;;;;;10.50;9.50;;;23.10;61.70;;;;;;5013620;28;20421;-69
2022/05/05 12:06:58;;;;;;;10.10;9.10;;;23.30;59.70;;;;;;5013200;28;20934;-69
2022/05/05 12:09:24;;;;;;;11.10;10.03;;;23.30;57.60;;;;;;5012875;28;20493;-69
2022/05/05 12:11:50;;;;;;;10.70;9.60;;;23.30;58.20;;;;;;5013228;28;20490;-69
2022/05/05 12:14:22;;;;;;;10.27;9.27;;;23.20;59.30;;;;;;5012534;28;20250;-69
2022/05/05 12:16:48;;;;;;;11.90;10.37;;;23.10;60.60;;;;;;5013105;28;20193;-69
2022/05/05 12:19:17;;;;;;;9.67;8.83;;;22.90;59.90;;;;;;5012336;28;20497;-69
2022/05/05 12:21:57;;;;;;;9.27;8.10;;;22.90;61.00;;;;;;5012809;28;20470;-69
2022/05/05 12:24:24;;;;;;;9.90;9.00;;;22.90;62.60;;;;;;5011826;28;20414;-69
2022/05/05 12:27:08;;;;;;;8.70;7.90;;;23.00;62.80;;;;;;5012905;28;20418;-69
2022/05/05 12:29:41;;;;;;;9.63;8.83;;;22.90;61.30;;;;;;5011427;28;20925;-69
2022/05/05 12:32:12;;;;;;;8.33;7.60;;;22.90;59.60;;;;;;5012059;28;20548;-69
2022/05/05 12:34:39;;;;;;;8.40;7.47;;;22.90;59.10;;;;;;5012892;28;20410;-69
2022/05/05 12:37:15;;;;;;;10.63;7.93;;;22.90;59.50;;;;;;5012181;28;20497;-69
2022/05/05 12:39:58;;;;;;;7.97;7.20;;;22.90;58.10;;;;;;5013056;28;20489;-69
2022/05/05 12:42:36;;;;;;;9.73;8.77;;;22.80;58.20;;;;;;5012241;28;20805;-69
2022/05/05 12:45:03;;;;;;;8.63;7.90;;;22.70;57.50;;;;;;5012195;28;20390;-70
2022/05/05 12:47:28;;;;;;;8.97;7.83;;;22.50;56.20;;;;;;5012784;28;20560;-69
2022/05/05 12:49:54;;;;;;;9.37;8.03;;;22.50;57.30;;;;;;5011208;28;20553;-69
2022/05/05 13:00:52;;;;;;;9.60;8.70;;;22.20;60.10;;;;;;5016432;28;20448;-69
2022/05/05 13:03:18;;;;;;;9.87;8.20;;;22.10;62.10;;;;;;5015931;28;20426;-69
2022/05/05 13:05:46;;;;;;;8.90;8.00;;;22.00;63.80;;;;;;5016778;28;20418;-69
2022/05/05 13:08:12;;;;;;;9.23;8.33;;;22.00;61.10;;;;;;5015567;28;20444;-69
2022/05/05 13:10:38;;;;;;;10.20;9.20;;;22.00;62.60;;;;;;5016554;28;20426;-69
2022/05/05 13:13:03;;;;;;;11.73;9.63;;;22.00;63.90;;;;;;5015777;28;20202;-69
2022/05/05 13:15:29;;;;;;;10.73;7.80;;;22.10;63.80;;;;;;5016348;28;20182;-69
2022/05/05 13:17:55;;;;;;;9.43;8.10;;;22.20;65.30;;;;;;5016403;28;20174;-69
2022/05/05 13:20:21;;;;;;;12.70;9.20;;;22.30;65.10;;;;;;5015641;28;21043;-69
2022/05/05 13:22:46;;;;;;;9.10;8.13;;;22.40;63.80;;;;;;5014955;28;20244;-69
2022/05/05 13:25:12;;;;;;;8.20;7.50;;;22.40;62.40;;;;;;5015382;28;20179;-69
2022/05/05 13:27:38;;;;;;;10.13;9.13;;;22.40;60.00;;;;;;5016185;28;20199;-69
2022/05/05 13:30:05;;;;;;;9.90;8.90;;;22.20;59.80;;;;;;5015255;28;20183;-69
2022/05/05 13:32:31;;;;;;;9.73;8.77;;;22.10;60.30;;;;;;5015783;28;20424;-69
2022/05/05 13:34:56;;;;;;;10.20;8.83;;;21.90;61.20;;;;;;5015714;28;20895;-69